createdAt,value
2022-09-06T00:00:31.049Z,36.18
2022-09-06T00:01:05.991Z,109.31
2022-09-06T00:01:41.114Z,43.43
2022-09-06T00:02:17.077Z,95.30
2022-09-06T00:02:52.129Z,69.46
2022-09-06T00:03:27.506Z,205.33
2022-09-06T00:04:03.212Z,61.51
2022-09-06T00:04:38.408Z,83.42
2022-09-06T00:05:13.532Z,128.96
2022-09-06T00:05:48.964Z,74.39
2022-09-06T00:06:24.173Z,51.49
2022-09-06T00:06:59.205Z,65.30
2022-09-06T00:07:34.234Z,211.20
2022-09-06T00:08:09.607Z,210.00
2022-09-06T00:08:44.811Z,203.82
2022-09-06T00:09:20.144Z,19.49
2022-09-06T00:09:55.323Z,55.30
2022-09-06T00:10:30.563Z,200.93
2022-09-06T00:11:05.683Z,53.06
2022-09-06T00:11:40.998Z,43.39
2022-09-06T00:12:16.165Z,92.48
2022-09-06T00:12:51.609Z,30.33
2022-09-06T00:13:27.016Z,166.25
2022-09-06T00:14:02.380Z,38.26
2022-09-06T00:14:37.421Z,71.88
2022-09-06T00:15:13.028Z,112.83
2022-09-06T00:15:48.709Z,41.17
2022-09-06T00:16:26.313Z,73.32
2022-09-06T00:16:59.200Z,41.35
2022-09-06T00:17:34.438Z,44.05
2022-09-06T00:18:09.629Z,54.40
2022-09-06T00:18:45.051Z,301.46
2022-09-06T00:19:20.845Z,64.28
2022-09-06T00:19:56.414Z,94.79
2022-09-06T00:20:31.615Z,65.86
2022-09-06T00:21:07.142Z,54.25
2022-09-06T00:21:42.470Z,56.25
2022-09-06T00:22:17.814Z,50.81
2022-09-06T00:22:53.125Z,63.81
2022-09-06T00:23:28.246Z,64.12
2022-09-06T00:24:03.594Z,50.76
2022-09-06T00:24:38.817Z,158.80
2022-09-06T00:25:13.921Z,62.76
2022-09-06T00:25:49.470Z,36.94
2022-09-06T00:26:24.564Z,53.18
2022-09-06T00:27:00.015Z,58.64
2022-09-06T00:27:35.325Z,57.27
2022-09-06T00:28:10.580Z,39.22
2022-09-06T00:28:45.588Z,60.11
2022-09-06T00:29:21.045Z,58.92
2022-09-06T00:29:56.646Z,309.59
2022-09-06T00:30:31.668Z,45.37
2022-09-06T00:31:07.121Z,40.43
2022-09-06T00:31:42.679Z,91.05
2022-09-06T00:32:17.904Z,107.09
2022-09-06T00:32:53.039Z,55.57
2022-09-06T00:33:28.253Z,58.60
2022-09-06T00:34:03.602Z,44.43
2022-09-06T00:34:38.986Z,57.14
2022-09-06T00:35:14.395Z,56.47
2022-09-06T00:35:49.618Z,79.56
2022-09-06T00:36:24.943Z,118.83
2022-09-06T00:37:00.137Z,46.75
2022-09-06T00:37:35.581Z,62.10
2022-09-06T00:38:10.871Z,23.46
2022-09-06T00:38:46.288Z,202.28
2022-09-06T00:39:21.603Z,337.81
2022-09-06T00:39:56.746Z,39.38
2022-09-06T00:40:31.730Z,68.91
2022-09-06T00:41:06.970Z,45.64
2022-09-06T00:41:42.270Z,66.01
2022-09-06T00:42:17.696Z,77.28
2022-09-06T00:42:52.914Z,58.60
2022-09-06T00:43:28.448Z,98.01
2022-09-06T00:44:03.754Z,255.00
2022-09-06T00:44:39.083Z,17.64
2022-09-06T00:45:14.165Z,214.73
2022-09-06T00:45:49.727Z,249.58
2022-09-06T00:46:24.947Z,72.39
2022-09-06T00:46:59.990Z,75.88
2022-09-06T00:47:35.300Z,185.99
2022-09-06T00:48:10.647Z,245.14
2022-09-06T00:48:45.945Z,65.10
2022-09-06T00:49:21.474Z,67.80
2022-09-06T00:49:56.674Z,74.31
2022-09-06T00:50:32.105Z,91.62
2022-09-06T00:51:07.502Z,46.95
2022-09-06T00:51:42.516Z,179.51
2022-09-06T00:52:17.833Z,93.90
2022-09-06T00:52:53.166Z,66.08
2022-09-06T00:53:28.404Z,216.19
2022-09-06T00:54:03.865Z,233.32
2022-09-06T00:54:38.966Z,43.71
2022-09-06T00:55:14.316Z,82.25
2022-09-06T00:55:49.328Z,254.83
2022-09-06T00:56:24.652Z,71.76
2022-09-06T00:56:59.640Z,56.75
2022-09-06T00:57:34.986Z,190.99
2022-09-06T00:58:09.987Z,49.70
2022-09-06T00:58:45.469Z,113.67
2022-09-06T00:59:20.957Z,64.68
2022-09-06T00:59:56.475Z,52.26
2022-09-06T01:00:31.792Z,224.93
2022-09-06T01:01:07.243Z,255.65
2022-09-06T01:01:42.715Z,254.94
2022-09-06T01:02:18.159Z,75.00
2022-09-06T01:02:53.631Z,186.01
2022-09-06T01:03:28.695Z,233.32
2022-09-06T01:04:03.896Z,264.85
2022-09-06T01:04:39.106Z,219.68
2022-09-06T01:05:14.011Z,70.25
2022-09-06T01:05:52.671Z,88.83
2022-09-06T01:06:24.444Z,80.76
2022-09-06T01:06:59.963Z,68.78
2022-09-06T01:07:34.976Z,59.96
2022-09-06T01:08:10.409Z,63.67
2022-09-06T01:08:45.931Z,203.16
2022-09-06T01:09:21.285Z,80.60
2022-09-06T01:09:56.476Z,79.11
2022-09-06T01:10:31.794Z,196.81
2022-09-06T01:11:07.095Z,187.42
2022-09-06T01:11:42.208Z,178.58
2022-09-06T01:12:17.212Z,209.38
2022-09-06T01:12:52.630Z,60.75
2022-09-06T01:13:27.858Z,70.50
2022-09-06T01:14:03.554Z,246.73
2022-09-06T01:14:38.681Z,213.78
2022-09-06T01:15:13.899Z,45.89
2022-09-06T01:15:48.917Z,7.76
2022-09-06T01:16:24.078Z,30.00
2022-09-06T01:16:59.286Z,30.00
2022-09-06T01:17:34.218Z,92.99
2022-09-06T01:18:09.446Z,261.32
2022-09-06T01:18:44.776Z,254.82
2022-09-06T01:19:19.899Z,248.23
2022-09-06T01:19:55.167Z,109.97
2022-09-06T01:20:30.565Z,241.35
2022-09-06T01:21:05.689Z,95.45
2022-09-06T01:21:40.869Z,109.65
2022-09-06T01:22:16.217Z,223.65
2022-09-06T01:22:51.640Z,206.76
2022-09-06T01:23:27.083Z,81.47
2022-09-06T01:24:02.589Z,221.90
2022-09-06T01:24:38.305Z,345.00
2022-09-06T01:25:13.407Z,301.97
2022-09-06T01:25:48.743Z,111.32
2022-09-06T01:26:24.040Z,179.16
2022-09-06T01:26:59.173Z,191.02
2022-09-06T01:27:34.378Z,119.32
2022-09-06T01:28:09.412Z,233.07
2022-09-06T01:28:44.758Z,63.08
2022-09-06T01:29:19.873Z,75.00
2022-09-06T01:29:55.318Z,68.13
2022-09-06T01:30:30.535Z,56.11
2022-09-06T01:31:05.813Z,233.14
2022-09-06T01:31:40.854Z,255.00
2022-09-06T01:32:15.865Z,217.46
2022-09-06T01:32:51.193Z,203.29
2022-09-06T01:33:26.505Z,125.17
2022-09-06T01:34:01.927Z,160.28
2022-09-06T01:34:37.022Z,169.24
2022-09-06T01:35:12.418Z,185.85
2022-09-06T01:35:47.658Z,173.26
2022-09-06T01:36:23.280Z,77.04
2022-09-06T01:37:11.201Z,93.31
2022-09-06T01:37:33.722Z,70.22
2022-09-06T01:38:09.035Z,75.00
2022-09-06T01:38:44.379Z,67.44
2022-09-06T01:39:19.557Z,196.79
2022-09-06T01:39:54.653Z,153.58
2022-09-06T01:40:30.005Z,186.41
2022-09-06T01:41:05.244Z,66.67
2022-09-06T01:41:40.565Z,54.04
2022-09-06T01:42:15.666Z,41.86
2022-09-06T01:42:50.885Z,245.01
2022-09-06T01:43:26.391Z,153.59
2022-09-06T01:44:01.506Z,120.00
2022-09-06T01:44:36.939Z,101.32
2022-09-06T01:45:12.230Z,201.74
2022-09-06T01:45:47.504Z,193.13
2022-09-06T01:46:23.100Z,63.81
2022-09-06T01:46:58.156Z,88.53
2022-09-06T01:47:33.473Z,133.96
2022-09-06T01:48:08.998Z,89.14
2022-09-06T01:48:44.322Z,85.00
2022-09-06T01:49:19.581Z,140.98
2022-09-06T01:49:55.071Z,40.75
2022-09-06T01:50:30.314Z,64.55
2022-09-06T01:51:05.348Z,63.83
2022-09-06T01:51:40.507Z,80.23
2022-09-06T01:52:15.718Z,38.36
2022-09-06T01:52:51.141Z,160.53
2022-09-06T01:53:26.357Z,60.41
2022-09-06T01:54:01.576Z,217.14
2022-09-06T01:54:36.784Z,256.44
2022-09-06T01:55:12.214Z,62.51
2022-09-06T01:55:47.629Z,75.00
2022-09-06T01:56:23.177Z,49.94
2022-09-06T01:56:58.584Z,39.70
2022-09-06T01:57:33.603Z,24.26
2022-09-06T01:58:09.035Z,137.55
2022-09-06T01:58:44.378Z,82.11
2022-09-06T01:59:19.980Z,75.00
2022-09-06T01:59:55.257Z,66.01
2022-09-06T02:00:30.546Z,31.78
2022-09-06T02:01:05.884Z,59.36
2022-09-06T02:01:41.508Z,32.76
2022-09-06T02:02:17.106Z,54.45
2022-09-06T02:02:52.218Z,57.85
2022-09-06T02:03:27.151Z,133.25
2022-09-06T02:04:02.643Z,75.00
2022-09-06T02:04:37.851Z,69.58
2022-09-06T02:05:12.729Z,60.57
2022-09-06T02:05:48.143Z,168.77
2022-09-06T02:06:23.665Z,297.86
2022-09-06T02:06:58.882Z,52.55
2022-09-06T02:07:34.430Z,178.77
2022-09-06T02:08:09.557Z,75.00
2022-09-06T02:08:44.794Z,75.00
2022-09-06T02:09:19.830Z,70.97
2022-09-06T02:09:55.355Z,75.00
2022-09-06T02:10:30.788Z,75.00
2022-09-06T02:11:05.991Z,103.70
2022-09-06T02:11:41.315Z,163.94
2022-09-06T02:12:16.615Z,120.00
2022-09-06T02:12:51.724Z,170.26
2022-09-06T02:13:26.852Z,212.95
2022-09-06T02:14:02.476Z,210.12
2022-09-06T02:14:37.817Z,209.88
2022-09-06T02:15:13.125Z,227.95
2022-09-06T02:15:48.377Z,220.60
2022-09-06T02:16:23.810Z,237.84
2022-09-06T02:16:59.037Z,188.24
2022-09-06T02:17:33.985Z,209.88
2022-09-06T02:18:09.091Z,209.39
2022-09-06T02:18:44.421Z,208.44
2022-09-06T02:19:19.717Z,152.07
2022-09-06T02:19:55.274Z,190.41
2022-09-06T02:20:30.487Z,205.79
2022-09-06T02:21:05.493Z,182.32
2022-09-06T02:21:40.863Z,161.79
2022-09-06T02:22:16.357Z,131.17
2022-09-06T02:22:52.077Z,184.86
2022-09-06T02:23:27.612Z,81.57
2022-09-06T02:24:02.638Z,80.42
2022-09-06T02:24:38.071Z,196.32
2022-09-06T02:25:13.396Z,228.00
2022-09-06T02:25:48.714Z,218.57
2022-09-06T02:26:23.828Z,216.78
2022-09-06T02:26:59.171Z,205.23
2022-09-06T02:27:34.289Z,213.61
2022-09-06T02:28:09.516Z,224.34
2022-09-06T02:28:44.978Z,247.56
2022-09-06T02:29:20.433Z,187.41
2022-09-06T02:29:55.802Z,85.36
2022-09-06T02:30:31.271Z,79.82
2022-09-06T02:31:06.548Z,216.13
2022-09-06T02:31:41.456Z,202.33
2022-09-06T02:32:16.950Z,227.43
2022-09-06T02:32:52.272Z,208.46
2022-09-06T02:33:27.487Z,182.80
2022-09-06T02:34:02.671Z,216.21
2022-09-06T02:34:37.580Z,191.00
2022-09-06T02:35:12.693Z,220.75
2022-09-06T02:35:48.123Z,201.89
2022-09-06T02:36:23.520Z,230.71
2022-09-06T02:36:58.727Z,216.99
2022-09-06T02:37:33.837Z,221.48
2022-09-06T02:38:09.137Z,216.88
2022-09-06T02:38:44.261Z,186.30
2022-09-06T02:39:19.474Z,195.01
2022-09-06T02:39:54.777Z,222.18
2022-09-06T02:40:30.236Z,187.52
2022-09-06T02:41:05.646Z,206.09
2022-09-06T02:41:40.860Z,82.86
2022-09-06T02:42:16.450Z,61.90
2022-09-06T02:42:51.774Z,52.51
2022-09-06T02:43:27.005Z,54.61
2022-09-06T02:44:02.109Z,69.77
2022-09-06T02:44:37.226Z,210.52
2022-09-06T02:45:12.561Z,242.09
2022-09-06T02:45:48.252Z,135.81
2022-09-06T02:46:23.809Z,237.74
2022-09-06T02:46:59.116Z,128.40
2022-09-06T02:47:34.233Z,199.76
2022-09-06T02:48:09.424Z,30.75
2022-09-06T02:48:44.865Z,65.64
2022-09-06T02:49:20.330Z,145.81
2022-09-06T02:49:55.481Z,157.68
2022-09-06T02:50:31.082Z,91.26
2022-09-06T02:51:06.382Z,95.85
2022-09-06T02:51:41.724Z,71.89
2022-09-06T02:52:17.039Z,225.64
2022-09-06T02:52:52.250Z,239.17
2022-09-06T02:53:27.582Z,212.14
2022-09-06T02:54:03.083Z,198.29
2022-09-06T02:54:38.384Z,224.07
2022-09-06T02:55:13.992Z,98.24
2022-09-06T02:55:49.095Z,174.63
2022-09-06T02:56:24.205Z,52.11
2022-09-06T02:56:59.508Z,72.73
2022-09-06T02:57:34.916Z,77.36
2022-09-06T02:58:09.799Z,78.41
2022-09-06T02:58:45.036Z,221.80
2022-09-06T02:59:20.539Z,75.03
2022-09-06T02:59:55.657Z,59.10
2022-09-06T03:00:30.942Z,64.78
2022-09-06T03:01:06.388Z,198.37
2022-09-06T03:01:41.525Z,129.50
2022-09-06T03:02:16.797Z,75.78
2022-09-06T03:02:51.995Z,215.64
2022-09-06T03:03:27.150Z,215.95
2022-09-06T03:04:02.247Z,199.35
2022-09-06T03:04:37.345Z,176.51
2022-09-06T03:05:12.627Z,77.38
2022-09-06T03:05:47.610Z,191.20
2022-09-06T03:06:22.704Z,227.04
2022-09-06T03:06:58.057Z,206.42
2022-09-06T03:07:33.058Z,32.28
2022-09-06T03:08:08.177Z,257.04
2022-09-06T03:08:43.280Z,197.17
2022-09-06T03:09:18.401Z,232.86
2022-09-06T03:09:53.685Z,205.06
2022-09-06T03:10:28.776Z,134.65
2022-09-06T03:11:04.161Z,46.50
2022-09-06T03:11:39.353Z,175.05
2022-09-06T03:12:14.561Z,212.74
2022-09-06T03:12:49.769Z,198.38
2022-09-06T03:13:24.864Z,217.10
2022-09-06T03:14:00.063Z,74.36
2022-09-06T03:14:35.174Z,65.17
2022-09-06T03:15:10.355Z,87.55
2022-09-06T03:15:45.544Z,205.87
2022-09-06T03:16:20.644Z,178.58
2022-09-06T03:16:55.837Z,201.58
2022-09-06T03:17:30.813Z,215.17
2022-09-06T03:18:06.114Z,154.30
2022-09-06T03:18:41.632Z,187.77
2022-09-06T03:19:16.807Z,183.35
2022-09-06T03:19:51.817Z,202.86
2022-09-06T03:20:27.391Z,196.65
2022-09-06T03:21:02.370Z,202.98
2022-09-06T03:21:37.667Z,219.31
2022-09-06T03:22:12.955Z,252.85
2022-09-06T03:22:48.255Z,206.31
2022-09-06T03:23:23.351Z,188.19
2022-09-06T03:23:58.463Z,208.73
2022-09-06T03:24:33.556Z,213.41
2022-09-06T03:25:08.439Z,226.97
2022-09-06T03:25:43.625Z,219.13
2022-09-06T03:26:18.802Z,112.00
2022-09-06T03:26:54.341Z,189.84
2022-09-06T03:27:29.747Z,210.72
2022-09-06T03:28:05.014Z,202.50
2022-09-06T03:28:40.413Z,202.11
2022-09-06T03:29:15.697Z,221.26
2022-09-06T03:29:50.994Z,203.18
2022-09-06T03:30:26.293Z,215.42
2022-09-06T03:31:01.493Z,258.81
2022-09-06T03:31:36.743Z,219.82
2022-09-06T03:32:12.034Z,180.78
2022-09-06T03:32:47.422Z,210.00
2022-09-06T03:33:22.638Z,170.72
2022-09-06T03:33:57.947Z,212.03
2022-09-06T03:34:33.363Z,221.26
2022-09-06T03:35:08.684Z,194.74
2022-09-06T03:35:43.781Z,169.69
2022-09-06T03:36:18.965Z,195.25
2022-09-06T03:36:53.946Z,239.73
2022-09-06T03:37:29.144Z,228.17
2022-09-06T03:38:04.435Z,222.92
2022-09-06T03:38:39.942Z,220.47
2022-09-06T03:39:15.044Z,238.30
2022-09-06T03:39:50.318Z,209.34
2022-09-06T03:40:25.583Z,205.87
2022-09-06T03:41:00.527Z,194.74
2022-09-06T03:41:35.789Z,237.85
2022-09-06T03:42:10.870Z,213.98
2022-09-06T03:42:46.613Z,214.36
2022-09-06T03:43:21.638Z,219.92
2022-09-06T03:43:56.928Z,254.52
2022-09-06T03:44:32.120Z,198.66
2022-09-06T03:45:07.513Z,231.75
2022-09-06T03:45:42.900Z,231.41
2022-09-06T03:46:18.387Z,265.27
2022-09-06T03:46:53.583Z,215.53
2022-09-06T03:47:28.984Z,216.18
2022-09-06T03:48:04.467Z,218.15
2022-09-06T03:48:39.978Z,219.70
2022-09-06T03:49:15.154Z,234.96
2022-09-06T03:49:50.357Z,226.03
2022-09-06T03:50:25.547Z,234.84
2022-09-06T03:51:00.846Z,224.83
2022-09-06T03:51:36.047Z,227.38
2022-09-06T03:52:11.255Z,226.25
2022-09-06T03:52:46.561Z,200.84
2022-09-06T03:53:21.934Z,223.75
2022-09-06T03:53:57.560Z,155.73
2022-09-06T03:54:32.860Z,278.30
2022-09-06T03:55:08.140Z,221.61
2022-09-06T03:55:43.355Z,240.82
2022-09-06T03:56:18.342Z,220.32
2022-09-06T03:56:53.652Z,220.44
2022-09-06T03:57:28.969Z,245.63
2022-09-06T03:58:04.075Z,206.06
2022-09-06T03:58:39.316Z,215.99
2022-09-06T03:59:14.594Z,231.16
2022-09-06T03:59:49.800Z,221.95
2022-09-06T04:00:24.787Z,267.40
2022-09-06T04:00:59.931Z,214.08
2022-09-06T04:01:35.584Z,224.93
2022-09-06T04:02:10.681Z,207.66
2022-09-06T04:02:46.076Z,212.92
2022-09-06T04:03:21.247Z,234.72
2022-09-06T04:03:56.553Z,211.01
2022-09-06T04:04:31.837Z,205.32
2022-09-06T04:05:07.317Z,207.16
2022-09-06T04:05:42.912Z,243.43
2022-09-06T04:06:18.104Z,216.70
2022-09-06T04:06:53.210Z,237.56
2022-09-06T04:07:28.383Z,215.41
2022-09-06T04:08:03.467Z,198.41
2022-09-06T04:08:38.895Z,219.62
2022-09-06T04:09:14.175Z,223.65
2022-09-06T04:09:49.369Z,211.32
2022-09-06T04:10:24.372Z,222.08
2022-09-06T04:10:59.909Z,243.78
2022-09-06T04:11:35.198Z,242.13
2022-09-06T04:12:10.404Z,240.37
2022-09-06T04:12:45.716Z,234.04
2022-09-06T04:13:21.334Z,213.25
2022-09-06T04:13:56.705Z,225.39
2022-09-06T04:14:31.898Z,246.01
2022-09-06T04:15:07.098Z,217.44
2022-09-06T04:15:42.115Z,214.03
2022-09-06T04:16:17.221Z,217.56
2022-09-06T04:16:52.600Z,216.27
2022-09-06T04:17:27.955Z,206.93
2022-09-06T04:18:07.200Z,215.42
2022-09-06T04:18:38.212Z,210.85
2022-09-06T04:19:13.556Z,217.94
2022-09-06T04:19:48.842Z,196.94
2022-09-06T04:20:23.927Z,231.70
2022-09-06T04:20:59.020Z,235.16
2022-09-06T04:21:34.239Z,212.66
2022-09-06T04:22:09.349Z,212.54
2022-09-06T04:22:44.667Z,162.49
2022-09-06T04:23:19.798Z,226.77
2022-09-06T04:23:55.211Z,201.83
2022-09-06T04:24:30.431Z,207.92
2022-09-06T04:25:05.843Z,220.54
2022-09-06T04:25:41.273Z,212.15
2022-09-06T04:26:16.756Z,214.70
2022-09-06T04:26:51.867Z,202.34
2022-09-06T04:27:27.093Z,239.36
2022-09-06T04:28:02.429Z,232.44
2022-09-06T04:28:37.729Z,212.82
2022-09-06T04:29:13.110Z,195.10
2022-09-06T04:29:48.249Z,215.01
2022-09-06T04:30:23.664Z,200.43
2022-09-06T04:31:03.330Z,240.79
2022-09-06T04:31:34.724Z,214.55
2022-09-06T04:32:09.585Z,214.86
2022-09-06T04:32:44.862Z,179.24
2022-09-06T04:33:20.053Z,229.86
2022-09-06T04:33:55.416Z,219.64
2022-09-06T04:34:30.634Z,193.57
2022-09-06T04:35:05.931Z,188.79
2022-09-06T04:35:40.951Z,230.46
2022-09-06T04:36:16.034Z,239.14
2022-09-06T04:36:51.345Z,225.82
2022-09-06T04:37:26.557Z,212.69
2022-09-06T04:38:02.050Z,204.70
2022-09-06T04:38:37.274Z,199.97
2022-09-06T04:39:12.265Z,267.24
2022-09-06T04:39:47.337Z,224.23
2022-09-06T04:40:22.796Z,249.44
2022-09-06T04:40:57.984Z,238.88
2022-09-06T04:41:33.180Z,216.68
2022-09-06T04:42:08.391Z,211.59
2022-09-06T04:42:43.697Z,211.46
2022-09-06T04:43:18.878Z,211.20
2022-09-06T04:43:53.825Z,226.74
2022-09-06T04:44:28.840Z,222.73
2022-09-06T04:45:03.925Z,195.35
2022-09-06T04:45:39.173Z,215.75
2022-09-06T04:46:14.504Z,205.91
2022-09-06T04:46:49.862Z,190.71
2022-09-06T04:47:24.945Z,209.16
2022-09-06T04:48:00.344Z,210.00
2022-09-06T04:48:35.569Z,81.38
2022-09-06T04:49:10.840Z,75.00
2022-09-06T04:49:46.401Z,270.72
2022-09-06T04:50:21.708Z,255.00
2022-09-06T04:50:57.210Z,250.97
2022-09-06T04:51:32.307Z,255.00
2022-09-06T04:52:07.623Z,219.28
2022-09-06T04:52:42.614Z,209.28
2022-09-06T04:53:17.915Z,199.46
2022-09-06T04:53:52.923Z,194.86
2022-09-06T04:54:28.114Z,220.49
2022-09-06T04:55:03.269Z,221.53
2022-09-06T04:55:38.766Z,212.51
2022-09-06T04:56:13.967Z,206.71
2022-09-06T04:56:49.370Z,254.46
2022-09-06T04:57:24.449Z,220.33
2022-09-06T04:57:59.751Z,217.41
2022-09-06T04:58:35.163Z,252.45
2022-09-06T04:59:10.265Z,224.31
2022-09-06T04:59:45.538Z,210.49
2022-09-06T05:00:20.773Z,227.84
2022-09-06T05:00:55.835Z,214.31
2022-09-06T05:01:31.228Z,251.03
2022-09-06T05:02:06.516Z,220.36
2022-09-06T05:02:41.759Z,227.74
2022-09-06T05:03:16.974Z,214.26
2022-09-06T05:03:56.180Z,179.80
2022-09-06T05:04:27.246Z,227.67
2022-09-06T05:05:02.125Z,185.28
2022-09-06T05:05:37.430Z,260.01
2022-09-06T05:06:12.634Z,228.78
2022-09-06T05:06:55.044Z,213.66
2022-09-06T05:07:29.943Z,220.74
2022-09-06T05:08:05.309Z,253.94
2022-09-06T05:08:40.710Z,200.38
2022-09-06T05:09:16.007Z,203.78
2022-09-06T05:09:51.301Z,223.82
2022-09-06T05:10:26.657Z,227.84
2022-09-06T05:11:01.855Z,225.38
2022-09-06T05:11:37.356Z,214.29
2022-09-06T05:12:12.460Z,251.11
2022-09-06T05:12:47.746Z,216.03
2022-09-06T05:13:23.447Z,248.85
2022-09-06T05:13:58.741Z,239.93
2022-09-06T05:14:33.932Z,208.83
2022-09-06T05:15:09.277Z,259.72
2022-09-06T05:15:44.461Z,30.00
2022-09-06T05:16:19.578Z,30.00
2022-09-06T05:16:54.751Z,44.93
2022-09-06T05:17:29.850Z,192.24
2022-09-06T05:18:04.838Z,266.32
2022-09-06T05:18:40.034Z,231.85
2022-09-06T05:19:15.332Z,211.91
2022-09-06T05:19:50.539Z,219.09
2022-09-06T05:20:25.740Z,152.21
2022-09-06T05:21:01.258Z,130.42
2022-09-06T05:21:46.896Z,219.03
2022-09-06T05:22:23.022Z,230.60
2022-09-06T05:22:58.112Z,188.55
2022-09-06T05:23:33.479Z,206.45
2022-09-06T05:24:08.792Z,216.31
2022-09-06T05:24:43.882Z,228.54
2022-09-06T05:25:19.090Z,203.80
2022-09-06T05:25:54.399Z,226.25
2022-09-06T05:26:29.842Z,255.00
2022-09-06T05:27:05.261Z,250.25
2022-09-06T05:27:40.765Z,217.20
2022-09-06T05:28:16.173Z,216.03
2022-09-06T05:28:51.585Z,210.63
2022-09-06T05:29:30.388Z,239.36
2022-09-06T05:30:02.089Z,252.91
2022-09-06T05:30:37.198Z,255.00
2022-09-06T05:31:12.438Z,245.30
2022-09-06T05:31:47.849Z,209.28
2022-09-06T05:32:23.005Z,227.22
2022-09-06T05:32:58.641Z,212.00
2022-09-06T05:33:34.156Z,216.94
2022-09-06T05:36:11.842Z,208.62
2022-09-06T05:36:47.040Z,206.33
2022-09-06T05:37:22.353Z,212.74
2022-09-06T05:37:57.538Z,139.32
2022-09-06T05:38:33.090Z,217.52
2022-09-06T05:39:08.370Z,182.69
2022-09-06T05:39:43.722Z,236.53
2022-09-06T05:40:18.948Z,231.73
2022-09-06T05:40:54.314Z,219.70
2022-09-06T05:41:29.601Z,209.41
2022-09-06T05:42:05.252Z,209.88
2022-09-06T05:42:40.438Z,210.00
2022-09-06T05:43:15.739Z,210.85
2022-09-06T05:43:50.947Z,210.22
2022-09-06T05:44:25.968Z,209.16
2022-09-06T05:45:01.364Z,203.62
2022-09-06T05:45:36.790Z,157.63
2022-09-06T05:46:11.789Z,214.32
2022-09-06T05:46:47.150Z,200.92
2022-09-06T05:47:22.574Z,184.72
2022-09-06T05:47:58.144Z,171.77
2022-09-06T05:48:36.832Z,174.70
2022-09-06T05:49:08.293Z,171.74
2022-09-06T05:49:43.477Z,199.29
2022-09-06T05:50:18.689Z,211.34
2022-09-06T05:50:54.065Z,209.88
2022-09-06T05:51:29.361Z,209.88
2022-09-06T05:52:04.644Z,210.00
2022-09-06T05:52:39.772Z,208.77
2022-09-06T05:53:15.101Z,209.28
2022-09-06T05:53:50.406Z,210.00
2022-09-06T05:54:25.903Z,209.39
2022-09-06T05:55:00.983Z,209.05
2022-09-06T05:55:37.500Z,209.77
2022-09-06T05:56:11.225Z,210.00
2022-09-06T05:56:46.510Z,209.28
2022-09-06T05:57:21.501Z,208.77
2022-09-06T05:57:56.771Z,209.88
2022-09-06T05:58:31.986Z,209.88
2022-09-06T05:59:07.082Z,208.66
2022-09-06T05:59:42.684Z,209.28
2022-09-06T06:00:17.685Z,210.00
2022-09-06T06:00:52.860Z,209.28
2022-09-06T06:01:27.880Z,210.00
2022-09-06T06:02:07.068Z,208.66
2022-09-06T06:02:38.740Z,209.28
2022-09-06T06:03:13.980Z,208.04
2022-09-06T06:03:49.095Z,210.00
2022-09-06T06:04:24.387Z,210.00
2022-09-06T06:04:59.890Z,209.39
2022-09-06T06:05:35.082Z,209.39
2022-09-06T06:06:10.498Z,154.34
2022-09-06T06:06:45.790Z,75.00
2022-09-06T06:07:20.770Z,117.98
2022-09-06T06:07:56.081Z,99.04
2022-09-06T06:08:31.606Z,75.00
2022-09-06T06:09:06.907Z,75.00
2022-09-06T06:09:42.123Z,75.00
2022-09-06T06:10:17.621Z,75.00
2022-09-06T06:10:53.132Z,75.00
2022-09-06T06:11:28.397Z,77.13
2022-09-06T06:12:03.493Z,73.68
2022-09-06T06:12:38.379Z,75.00
2022-09-06T06:13:13.492Z,75.00
2022-09-06T06:13:48.866Z,75.00
2022-09-06T06:14:23.854Z,75.00
2022-09-06T06:14:59.043Z,75.00
2022-09-06T06:15:34.137Z,75.00
2022-09-06T06:16:09.362Z,75.00
2022-09-06T06:16:45.303Z,75.00
2022-09-06T06:17:20.332Z,75.00
2022-09-06T06:17:55.551Z,75.00
2022-09-06T06:18:30.674Z,75.00
2022-09-06T06:19:06.072Z,30.00
2022-09-06T06:19:41.463Z,51.55
2022-09-06T06:20:16.654Z,53.00
2022-09-06T06:20:52.170Z,53.00
2022-09-06T06:21:27.377Z,53.00
2022-09-06T06:22:02.576Z,53.00
2022-09-06T06:22:37.568Z,53.00
2022-09-06T06:23:12.875Z,53.00
2022-09-06T06:23:48.103Z,53.00
2022-09-06T06:24:23.562Z,53.00
2022-09-06T06:24:59.066Z,53.00
2022-09-06T06:25:34.248Z,53.00
2022-09-06T06:26:09.441Z,53.00
2022-09-06T06:26:44.656Z,53.00
2022-09-06T06:27:19.953Z,63.08
2022-09-06T06:27:55.145Z,358.27
2022-09-06T06:28:30.369Z,94.46
2022-09-06T06:29:05.356Z,198.17
2022-09-06T06:29:40.273Z,64.45
2022-09-06T06:30:18.334Z,194.05
2022-09-06T06:30:50.792Z,42.87
2022-09-06T06:31:25.989Z,21.14
2022-09-06T06:32:01.223Z,180.73
2022-09-06T06:32:36.322Z,236.32
2022-09-06T06:33:11.838Z,209.77
2022-09-06T06:33:47.163Z,202.89
2022-09-06T06:34:22.360Z,218.45
2022-09-06T06:34:57.763Z,213.56
2022-09-06T06:35:35.151Z,206.48
2022-09-06T06:36:08.163Z,180.37
2022-09-06T06:36:43.278Z,158.84
2022-09-06T06:37:18.605Z,185.49
2022-09-06T06:37:53.999Z,36.13
2022-09-06T06:38:29.341Z,196.15
2022-09-06T06:39:04.208Z,204.03
2022-09-06T06:39:39.271Z,212.40
2022-09-06T06:40:14.611Z,224.16
2022-09-06T06:40:49.782Z,41.67
2022-09-06T06:41:24.983Z,81.17
2022-09-06T06:42:00.499Z,54.13
2022-09-06T06:42:35.800Z,77.07
2022-09-06T06:43:11.597Z,192.36
2022-09-06T06:43:47.025Z,75.00
2022-09-06T06:44:22.130Z,75.00
2022-09-06T06:44:57.734Z,75.00
2022-09-06T06:45:33.187Z,75.00
2022-09-06T06:46:08.670Z,237.45
2022-09-06T06:46:43.890Z,255.00
2022-09-06T06:47:19.205Z,255.00
2022-09-06T06:47:54.585Z,255.00
2022-09-06T06:48:29.924Z,255.00
2022-09-06T06:49:05.314Z,255.00
2022-09-06T06:49:40.396Z,255.00
2022-09-06T06:50:15.506Z,255.00
2022-09-06T06:50:50.478Z,255.00
2022-09-06T06:51:25.884Z,255.00
2022-09-06T06:52:01.165Z,255.00
2022-09-06T06:52:36.674Z,223.42
2022-09-06T06:53:12.087Z,209.77
2022-09-06T06:53:47.682Z,209.39
2022-09-06T06:54:22.881Z,209.88
2022-09-06T06:54:58.262Z,210.00
2022-09-06T06:55:33.460Z,210.00
2022-09-06T06:56:09.324Z,210.00
2022-09-06T06:56:44.415Z,193.35
2022-09-06T06:57:19.542Z,51.92
2022-09-06T06:57:54.936Z,53.00
2022-09-06T06:58:30.250Z,30.72
2022-09-06T06:59:05.538Z,75.00
2022-09-06T06:59:40.839Z,75.00
2022-09-06T07:00:16.028Z,75.00
2022-09-06T07:00:51.357Z,56.32
2022-09-06T07:01:26.758Z,48.68
2022-09-06T07:02:02.000Z,52.55
2022-09-06T07:02:36.958Z,75.00
2022-09-06T07:03:12.356Z,75.00
2022-09-06T07:03:47.978Z,101.20
2022-09-06T07:04:23.215Z,208.77
2022-09-06T07:04:58.297Z,208.77
2022-09-06T22:01:36.987Z,56.46
2022-09-06T22:02:12.079Z,72.34
2022-09-06T22:02:47.598Z,71.63
2022-09-06T22:03:22.782Z,72.34
2022-09-06T22:03:57.878Z,102.28
2022-09-06T22:04:33.063Z,60.86
2022-09-06T22:05:08.460Z,75.00
2022-09-06T22:05:43.474Z,41.17
2022-09-06T22:06:18.970Z,56.32
2022-09-06T22:06:54.077Z,27.32
2022-09-06T22:07:29.373Z,49.47
2022-09-06T22:08:04.567Z,75.00
2022-09-06T22:08:39.542Z,75.00
2022-09-06T22:09:15.246Z,59.36
2022-09-06T22:09:50.557Z,31.32
2022-09-06T22:10:26.142Z,50.20
2022-09-06T22:11:01.465Z,65.30
2022-09-06T22:11:36.740Z,144.69
2022-09-06T22:12:11.925Z,37.46
2022-09-06T22:12:54.869Z,75.88
2022-09-06T22:13:30.174Z,74.37
2022-09-06T22:14:05.279Z,44.34
2022-09-06T22:14:40.196Z,103.15
2022-09-06T22:15:15.476Z,75.34
2022-09-06T22:15:50.933Z,69.07
2022-09-06T22:16:26.239Z,205.89
2022-09-06T22:17:01.591Z,144.50
2022-09-06T22:17:36.692Z,68.19
2022-09-06T22:18:12.110Z,75.00
2022-09-06T22:18:47.414Z,79.15
2022-09-06T22:19:22.663Z,25.71
2022-09-06T22:19:58.083Z,121.72
2022-09-06T22:20:33.206Z,95.20
2022-09-06T22:21:08.483Z,171.60
2022-09-06T22:21:43.704Z,255.00
2022-09-06T22:22:18.957Z,187.44
2022-09-06T22:22:53.941Z,187.51
2022-09-06T22:23:29.357Z,205.51